Time;durP1;ratioP1;P1;durP2;ratioP2;P2;SDS_P1;SDS_P2;PMS_P1;PMS_P2;Temp;Humidity;BMP_temperature;BMP_pressure;BME280_temperature;BME280_humidity;BME280_pressure;Samples;Min_cycle;Max_cycle;Signal;HPM_P1;HPM_P2
2022/02/08 00:07:34;;;;;;;2.23;1.43;;;3.70;99.90;;;;;;4991961;28;20474;-68
2022/02/08 00:09:59;;;;;;;2.00;0.97;;;3.70;99.90;;;;;;4992875;28;20412;-67
2022/02/08 00:12:25;;;;;;;0.77;0.77;;;3.70;99.90;;;;;;4992892;28;20435;-67
2022/02/08 00:14:52;;;;;;;2.50;1.77;;;3.70;99.90;;;;;;4992903;28;20299;-67
2022/02/08 00:17:18;;;;;;;2.07;1.87;;;3.70;99.90;;;;;;4992928;28;20213;-68
2022/02/08 00:19:43;;;;;;;1.03;0.93;;;3.70;99.90;;;;;;4992854;28;20408;-68
2022/02/08 00:22:09;;;;;;;5.03;1.37;;;3.70;99.90;;;;;;4992664;28;20264;-68
2022/02/08 00:24:34;;;;;;;2.40;1.80;;;3.80;99.90;;;;;;4992438;28;20168;-67
2022/02/08 00:27:01;;;;;;;1.57;1.40;;;3.80;99.90;;;;;;4992937;28;20180;-67
2022/02/08 00:29:26;;;;;;;3.53;1.83;;;3.80;99.90;;;;;;4992650;28;20651;-68
2022/02/08 00:31:51;;;;;;;4.40;1.53;;;3.90;99.90;;;;;;4992692;28;20455;-68
2022/02/08 00:34:17;;;;;;;3.27;2.30;;;3.90;99.90;;;;;;4992498;28;20532;-67
2022/02/08 00:36:43;;;;;;;2.77;2.10;;;3.90;99.90;;;;;;4992438;28;20169;-67
2022/02/08 00:39:09;;;;;;;1.17;1.07;;;4.00;99.90;;;;;;4991784;28;20584;-67
2022/02/08 00:41:36;;;;;;;9.10;2.10;;;4.00;99.90;;;;;;4992824;28;20327;-67
2022/02/08 00:44:09;;;;;;;9.27;2.90;;;4.00;99.90;;;;;;4992384;28;20400;-68
2022/02/08 00:46:50;;;;;;;1.87;1.07;;;4.00;99.90;;;;;;5027472;23;20481;-72
2022/02/08 00:49:16;;;;;;;0.90;0.90;;;4.00;99.90;;;;;;5052225;28;20413;-72
2022/02/08 00:51:43;;;;;;;4.10;1.63;;;4.00;99.90;;;;;;5052072;28;20420;-72
2022/02/08 00:54:10;;;;;;;10.43;1.30;;;4.00;99.90;;;;;;5052429;28;20250;-72
2022/02/08 00:56:35;;;;;;;1.87;1.67;;;3.90;99.90;;;;;;5052229;28;20501;-72
2022/02/08 00:59:01;;;;;;;1.63;1.17;;;3.90;99.90;;;;;;5052295;28;20508;-72
2022/02/08 01:01:27;;;;;;;1.40;1.30;;;3.90;99.90;;;;;;5052249;28;20201;-73
2022/02/08 01:03:52;;;;;;;1.33;1.10;;;4.00;99.90;;;;;;5052435;28;20163;-73
2022/02/08 01:06:20;;;;;;;0.80;0.80;;;3.90;99.90;;;;;;5051985;28;20190;-73
2022/02/08 01:08:45;;;;;;;6.40;0.90;;;3.90;99.90;;;;;;5051950;28;20202;-73
2022/02/08 01:11:12;;;;;;;1.57;1.47;;;3.90;99.90;;;;;;5051929;28;20935;-73
2022/02/08 01:13:39;;;;;;;3.40;1.00;;;4.00;99.90;;;;;;5050615;28;20592;-73
2022/02/08 01:16:06;;;;;;;1.37;1.13;;;4.00;99.90;;;;;;5051801;28;20433;-73
2022/02/08 01:18:36;;;;;;;3.93;1.77;;;3.90;99.90;;;;;;5051866;28;20472;-73
2022/02/08 01:21:01;;;;;;;1.30;1.20;;;3.90;99.90;;;;;;5051664;28;20402;-73
2022/02/08 01:23:27;;;;;;;1.77;1.33;;;3.90;99.90;;;;;;5051780;28;20447;-73
2022/02/08 01:25:57;;;;;;;1.10;1.10;;;4.00;99.90;;;;;;5051600;28;20174;-73
2022/02/08 01:28:44;;;;;;;2.00;1.10;;;4.00;99.90;;;;;;5051850;28;20159;-73
2022/02/08 01:31:13;;;;;;;2.40;1.67;;;3.90;99.90;;;;;;5051403;28;20406;-74
2022/02/08 01:37:01;;;;;;;4.30;1.00;;;4.00;99.90;;;;;;5028581;28;20421;-73
2022/02/08 01:39:37;;;;;;;1.53;1.17;;;4.00;99.90;;;;;;5051452;28;20810;-73
2022/02/08 01:49:33;;;;;;;3.10;1.33;;;3.80;99.90;;;;;;5051531;28;20413;-73
2022/02/08 01:51:59;;;;;;;2.13;1.23;;;3.70;99.90;;;;;;5053654;28;20174;-72
2022/02/08 01:54:25;;;;;;;4.60;1.13;;;3.70;99.90;;;;;;5055605;28;20879;-72
2022/02/08 01:56:52;;;;;;;0.70;0.70;;;3.60;99.90;;;;;;5055329;28;20677;-72
2022/02/08 01:59:19;;;;;;;2.60;1.33;;;3.60;99.90;;;;;;5055191;28;20459;-72
2022/02/08 02:01:45;;;;;;;4.30;1.00;;;3.60;99.90;;;;;;5055090;28;20409;-72
2022/02/08 02:04:10;;;;;;;2.93;1.17;;;3.60;99.90;;;;;;5055343;28;20408;-72
2022/02/08 02:06:37;;;;;;;0.90;0.90;;;3.60;99.90;;;;;;5055035;28;20417;-72
2022/02/08 02:09:04;;;;;;;10.00;3.30;;;3.50;99.90;;;;;;5055177;28;20167;-72
2022/02/08 02:11:30;;;;;;;7.80;2.43;;;3.50;99.90;;;;;;5055014;28;20806;-72
2022/02/08 02:13:56;;;;;;;1.13;1.03;;;3.50;99.90;;;;;;5054927;28;20602;-72
2022/02/08 02:16:38;;;;;;;0.90;0.90;;;3.40;99.90;;;;;;5055153;28;20266;-74
2022/02/08 02:19:04;;;;;;;1.60;1.13;;;3.30;99.90;;;;;;5054846;28;20462;-74
2022/02/08 02:21:29;;;;;;;2.40;1.13;;;3.30;99.90;;;;;;5054768;28;20496;-74
2022/02/08 02:23:55;;;;;;;2.70;1.10;;;3.30;99.90;;;;;;5054906;28;20167;-74
2022/02/08 02:26:21;;;;;;;1.13;0.80;;;3.20;99.90;;;;;;5054498;28;20222;-72
2022/02/08 02:28:46;;;;;;;4.07;0.83;;;3.20;99.90;;;;;;5054440;28;20568;-72
2022/02/08 02:31:12;;;;;;;1.17;1.07;;;3.30;99.90;;;;;;5054534;28;20802;-73
2022/02/08 02:33:37;;;;;;;0.80;0.80;;;3.30;99.90;;;;;;5054535;28;20163;-73
2022/02/08 02:36:03;;;;;;;5.33;0.90;;;3.30;99.90;;;;;;5054385;28;20254;-72
2022/02/08 02:38:29;;;;;;;0.60;0.60;;;3.30;99.90;;;;;;5054378;28;20353;-73
2022/02/08 02:40:55;;;;;;;1.67;1.40;;;3.30;99.90;;;;;;5054434;28;20744;-72
2022/02/08 02:43:21;;;;;;;2.57;1.40;;;3.30;99.90;;;;;;5054555;28;20167;-72
2022/02/08 02:45:47;;;;;;;1.47;1.37;;;3.40;99.90;;;;;;5054516;28;20162;-72
2022/02/08 02:48:14;;;;;;;2.50;1.17;;;3.40;99.90;;;;;;5054137;28;20457;-73
2022/02/08 02:50:40;;;;;;;1.57;0.93;;;3.40;99.90;;;;;;5054244;28;20441;-73
2022/02/08 02:53:05;;;;;;;2.50;1.43;;;3.40;99.90;;;;;;5052904;28;20440;-73
2022/02/08 02:55:33;;;;;;;3.40;1.27;;;3.40;99.90;;;;;;5054151;28;20409;-73
2022/02/08 02:58:00;;;;;;;2.33;1.33;;;3.40;99.90;;;;;;5054057;28;20199;-74
2022/02/08 03:00:35;;;;;;;1.60;1.03;;;3.50;99.90;;;;;;5052883;28;20404;-72
2022/02/08 03:19:17;;;;;;;0.83;0.83;;;3.60;99.90;;;;;;5035071;28;20414;-73
2022/02/08 03:21:42;;;;;;;2.23;1.30;;;3.60;99.90;;;;;;5033652;28;20426;-72
2022/02/08 03:24:08;;;;;;;5.90;1.33;;;3.60;99.90;;;;;;5033786;28;20160;-72
2022/02/08 03:26:33;;;;;;;0.80;0.80;;;3.60;99.90;;;;;;5033827;28;20536;-73
2022/02/08 03:28:59;;;;;;;2.40;1.27;;;3.60;99.90;;;;;;5033566;28;20172;-73
2022/02/08 03:31:24;;;;;;;7.70;2.30;;;3.70;99.90;;;;;;5033485;28;20225;-73
2022/02/08 03:33:50;;;;;;;1.00;1.00;;;3.70;99.90;;;;;;5033631;28;20210;-73
2022/02/08 03:36:16;;;;;;;1.13;1.13;;;3.70;99.90;;;;;;5034685;28;20635;-73
2022/02/08 03:38:45;;;;;;;5.50;1.10;;;3.60;99.90;;;;;;5033334;28;20199;-73
2022/02/08 03:41:11;;;;;;;1.40;1.30;;;3.70;99.90;;;;;;5033283;28;20410;-73
2022/02/08 03:43:40;;;;;;;2.20;1.60;;;3.60;99.90;;;;;;5033514;28;20955;-72
2022/02/08 03:46:11;;;;;;;1.20;1.10;;;3.60;99.90;;;;;;5033233;28;20171;-73
2022/02/08 03:48:39;;;;;;;1.10;1.10;;;3.70;99.90;;;;;;5033106;28;20423;-72
2022/02/08 03:51:09;;;;;;;1.70;1.40;;;3.60;99.90;;;;;;5033318;28;20442;-72
2022/02/08 03:53:36;;;;;;;2.63;1.93;;;3.70;99.90;;;;;;5033006;28;20904;-73
2022/02/08 03:56:02;;;;;;;4.30;1.80;;;3.70;99.90;;;;;;5033054;28;20445;-73
2022/02/08 03:58:27;;;;;;;7.30;1.60;;;3.70;99.90;;;;;;5032856;28;20450;-73
2022/02/08 04:03:24;;;;;;;4.30;1.60;;;3.70;99.90;;;;;;5052944;28;20249;-73
2022/02/08 04:05:52;;;;;;;1.30;1.10;;;3.70;99.90;;;;;;5052814;28;20397;-72
2022/02/08 04:08:18;;;;;;;1.70;1.57;;;3.70;99.90;;;;;;5052659;28;20496;-72
2022/02/08 04:10:45;;;;;;;1.80;1.70;;;3.70;99.90;;;;;;5052448;28;20421;-72
2022/02/08 04:13:19;;;;;;;1.73;1.53;;;3.80;99.90;;;;;;5052185;28;20445;-72
2022/02/08 04:18:50;;;;;;;2.30;2.10;;;3.80;99.90;;;;;;5051431;28;20464;-72
2022/02/08 04:32:36;;;;;;;1.20;1.10;;;3.80;99.90;;;;;;5052464;28;20880;-72
2022/02/08 04:35:23;;;;;;;2.10;1.90;;;3.80;99.90;;;;;;5052354;28;20482;-72
2022/02/08 04:40:51;;;;;;;2.10;1.00;;;3.90;99.90;;;;;;5052305;28;20397;-73
2022/02/08 04:45:54;;;;;;;0.90;0.90;;;3.90;99.90;;;;;;5052191;28;20409;-73
2022/02/08 04:48:28;;;;;;;1.53;1.30;;;3.90;99.90;;;;;;5051823;28;20444;-73
2022/02/08 04:51:05;;;;;;;1.63;1.53;;;3.90;99.90;;;;;;5052181;28;20479;-72
2022/02/08 04:53:38;;;;;;;1.60;1.50;;;3.90;99.90;;;;;;5050700;28;20897;-72
2022/02/08 04:59:16;;;;;;;2.00;1.90;;;4.00;99.90;;;;;;5035596;28;20485;-72
2022/02/08 05:37:35;;;;;;;6.80;1.70;;;4.30;99.90;;;;;;5051570;28;20448;-72
2022/02/08 05:48:25;;;;;;;3.23;1.27;;;4.50;99.90;;;;;;5009451;28;20454;-71
2022/02/08 05:51:04;;;;;;;2.40;1.60;;;4.50;99.90;;;;;;5032034;28;20792;-72
2022/02/08 05:53:32;;;;;;;6.53;2.10;;;4.50;99.90;;;;;;5051700;28;20409;-73
2022/02/08 05:55:58;;;;;;;2.17;1.70;;;4.50;99.90;;;;;;5052035;28;20903;-73
2022/02/08 05:58:25;;;;;;;2.20;2.00;;;4.50;99.90;;;;;;5052488;28;20533;-73
2022/02/08 06:00:51;;;;;;;5.10;1.77;;;4.50;99.90;;;;;;5051742;28;20198;-72
2022/02/08 06:03:16;;;;;;;3.53;2.13;;;4.50;99.90;;;;;;5051713;28;20854;-73
2022/02/08 06:05:42;;;;;;;3.43;2.13;;;4.50;99.90;;;;;;5051600;28;20243;-73
2022/02/08 06:08:08;;;;;;;2.47;2.33;;;4.50;99.90;;;;;;5051425;28;20224;-73
2022/02/08 06:10:35;;;;;;;2.27;1.73;;;4.50;99.90;;;;;;5051359;28;20416;-73
2022/02/08 06:13:01;;;;;;;1.57;1.47;;;4.50;99.90;;;;;;5051156;28;20194;-73
2022/02/08 06:15:27;;;;;;;2.90;2.43;;;4.50;99.90;;;;;;5051353;28;20433;-73
2022/02/08 06:17:55;;;;;;;5.03;1.67;;;4.50;99.90;;;;;;5051282;28;20198;-73
2022/02/08 06:20:21;;;;;;;9.73;3.40;;;4.50;99.90;;;;;;5051072;28;20903;-73
2022/02/08 06:22:47;;;;;;;5.33;2.87;;;4.60;99.90;;;;;;5051101;28;20423;-72
2022/02/08 06:25:15;;;;;;;4.40;2.67;;;4.60;99.90;;;;;;5051204;28;20431;-73
2022/02/08 06:27:42;;;;;;;1.77;1.43;;;4.60;99.90;;;;;;5051480;28;20432;-73
2022/02/08 06:30:09;;;;;;;2.27;2.07;;;4.70;99.90;;;;;;5051340;28;20413;-72
2022/02/08 06:32:36;;;;;;;4.70;2.00;;;4.70;99.90;;;;;;5050871;28;20903;-73
2022/02/08 06:35:08;;;;;;;2.00;1.60;;;4.70;99.90;;;;;;5051127;28;20436;-72
2022/02/08 06:37:36;;;;;;;3.63;2.00;;;4.70;99.90;;;;;;5052019;28;21004;-71
2022/02/08 06:40:05;;;;;;;3.70;2.70;;;4.60;99.90;;;;;;5056240;28;20409;-73
2022/02/08 06:42:31;;;;;;;5.90;3.03;;;4.60;99.90;;;;;;5054213;28;20455;-72
2022/02/08 06:44:57;;;;;;;1.97;1.67;;;4.60;99.90;;;;;;5053441;28;20993;-73
2022/02/08 06:47:22;;;;;;;7.20;2.10;;;4.60;99.90;;;;;;5050261;22;20224;-67
2022/02/08 06:49:48;;;;;;;3.17;1.97;;;4.60;99.90;;;;;;4994651;28;20515;-67
2022/02/08 06:52:14;;;;;;;2.40;2.07;;;4.60;99.90;;;;;;4994780;28;20189;-68
2022/02/08 06:54:39;;;;;;;3.37;2.30;;;4.70;99.90;;;;;;4994552;28;20519;-67
2022/02/08 06:57:05;;;;;;;2.77;2.57;;;4.70;99.90;;;;;;4994411;28;20314;-67
2022/02/08 06:59:37;;;;;;;1.87;1.70;;;4.80;99.90;;;;;;4994575;28;20173;-67
2022/02/08 07:02:03;;;;;;;4.17;2.30;;;4.80;99.90;;;;;;4994931;28;20388;-67
2022/02/08 07:04:28;;;;;;;2.87;2.57;;;4.80;99.90;;;;;;4994509;28;20907;-67
2022/02/08 07:06:54;;;;;;;2.10;1.97;;;4.90;99.90;;;;;;4994327;28;20495;-68
2022/02/08 07:09:19;;;;;;;1.90;1.70;;;4.90;99.90;;;;;;4994302;28;20579;-67
2022/02/08 07:11:47;;;;;;;2.13;1.57;;;4.90;99.90;;;;;;4994516;28;20176;-67
2022/02/08 07:14:13;;;;;;;3.67;2.70;;;4.90;99.90;;;;;;4994180;28;20624;-67
2022/02/08 07:16:38;;;;;;;3.17;2.80;;;4.90;99.90;;;;;;4994288;28;20856;-67
2022/02/08 07:19:04;;;;;;;2.80;2.60;;;5.00;99.90;;;;;;4993952;28;20498;-67
2022/02/08 07:21:29;;;;;;;2.87;2.10;;;5.00;99.90;;;;;;4994202;28;20204;-67
2022/02/08 07:23:55;;;;;;;2.67;1.80;;;5.00;99.90;;;;;;4994024;28;20249;-68
2022/02/08 07:26:22;;;;;;;4.47;3.30;;;5.00;99.90;;;;;;4993902;28;20252;-68
2022/02/08 07:28:48;;;;;;;2.00;1.80;;;4.90;99.90;;;;;;4993955;28;20698;-68
2022/02/08 07:31:19;;;;;;;3.07;2.20;;;4.80;99.90;;;;;;4993939;28;20420;-68
2022/02/08 07:34:00;;;;;;;2.80;2.60;;;4.80;99.90;;;;;;4994111;28;20176;-67
2022/02/08 07:38:52;;;;;;;3.00;2.50;;;4.60;99.90;;;;;;4993964;28;20539;-69
2022/02/08 07:44:03;;;;;;;3.40;2.77;;;4.70;99.90;;;;;;4994088;28;20958;-67
2022/02/08 07:46:29;;;;;;;6.17;3.47;;;4.70;99.90;;;;;;4993579;28;20776;-68
2022/02/08 07:48:54;;;;;;;10.27;3.80;;;4.70;99.90;;;;;;4993960;28;20396;-68
2022/02/08 07:51:22;;;;;;;5.20;3.03;;;4.70;99.90;;;;;;4994276;28;20173;-68
2022/02/08 07:53:48;;;;;;;3.83;2.03;;;4.70;99.90;;;;;;4993691;28;20654;-68
2022/02/08 07:56:15;;;;;;;5.20;2.80;;;4.70;99.90;;;;;;4993677;28;20503;-68
2022/02/08 07:58:41;;;;;;;5.53;3.63;;;4.60;99.90;;;;;;4993673;28;20208;-68
2022/02/08 08:01:09;;;;;;;6.00;3.13;;;4.70;99.90;;;;;;4993907;28;20408;-68
2022/02/08 08:03:42;;;;;;;4.77;2.53;;;4.70;99.90;;;;;;4993444;28;20404;-67
2022/02/08 08:06:09;;;;;;;6.10;2.13;;;4.70;99.90;;;;;;4993260;28;20397;-68
2022/02/08 08:08:36;;;;;;;11.80;2.83;;;4.70;99.90;;;;;;4993330;28;20487;-68
2022/02/08 08:11:07;;;;;;;5.43;3.27;;;4.70;99.90;;;;;;4993471;28;20428;-68
2022/02/08 08:13:38;;;;;;;5.77;3.70;;;4.80;99.90;;;;;;4992957;28;20416;-67
2022/02/08 08:16:14;;;;;;;4.40;3.43;;;4.70;99.90;;;;;;4993230;28;20491;-68
2022/02/08 08:18:58;;;;;;;5.33;4.40;;;4.70;99.90;;;;;;4993024;28;20837;-68
2022/02/08 08:21:25;;;;;;;2.83;2.10;;;4.80;99.90;;;;;;4993421;28;20392;-68
2022/02/08 08:23:51;;;;;;;2.60;1.90;;;4.80;99.90;;;;;;4992972;28;20412;-67
2022/02/08 08:26:17;;;;;;;5.83;3.03;;;4.80;99.90;;;;;;4992805;28;20434;-68
2022/02/08 08:28:42;;;;;;;4.90;2.90;;;4.80;99.90;;;;;;4992920;28;20446;-68
2022/02/08 08:31:08;;;;;;;2.70;2.50;;;4.80;99.90;;;;;;4993056;28;20204;-67
2022/02/08 08:33:34;;;;;;;7.13;2.10;;;4.80;99.90;;;;;;4992790;28;20647;-72
2022/02/08 08:35:59;;;;;;;4.30;2.40;;;4.90;99.90;;;;;;4993111;28;20200;-70
2022/02/08 08:38:26;;;;;;;5.80;3.30;;;4.90;99.90;;;;;;4993279;28;20490;-67
2022/02/08 08:41:07;;;;;;;1.90;1.80;;;5.00;99.90;;;;;;4993068;28;20177;-68
2022/02/08 08:49:00;;;;;;;2.27;2.10;;;5.10;99.90;;;;;;4992985;28;20192;-67
2022/02/08 08:53:58;;;;;;;3.37;2.80;;;5.20;99.90;;;;;;4992829;28;20436;-67
2022/02/08 08:56:24;;;;;;;4.33;2.27;;;5.30;99.90;;;;;;4992991;28;20494;-68
2022/02/08 08:58:49;;;;;;;3.53;3.20;;;5.30;99.90;;;;;;4992725;28;20205;-68
2022/02/08 09:01:14;;;;;;;2.23;2.03;;;5.30;99.90;;;;;;4992395;28;20439;-67
2022/02/08 09:03:41;;;;;;;2.40;2.20;;;5.30;99.90;;;;;;4992901;28;20642;-68
2022/02/08 09:06:07;;;;;;;3.17;2.97;;;5.30;99.90;;;;;;4992686;28;20755;-68
2022/02/08 09:08:37;;;;;;;5.33;3.47;;;5.40;99.90;;;;;;4993066;28;20424;-68
2022/02/08 09:14:09;;;;;;;4.27;2.57;;;5.40;99.90;;;;;;4993794;28;20451;-68
2022/02/08 09:16:34;;;;;;;3.50;3.20;;;5.40;99.90;;;;;;4991940;28;20470;-68
2022/02/08 09:19:27;;;;;;;3.57;2.50;;;5.50;99.90;;;;;;4992363;28;20436;-68
2022/02/08 09:32:16;;;;;;;4.03;3.30;;;5.80;99.90;;;;;;4992357;28;20874;-68
2022/02/08 09:34:43;;;;;;;3.40;2.53;;;5.80;99.90;;;;;;4992479;28;20391;-68
2022/02/08 09:37:10;;;;;;;7.40;3.23;;;5.80;99.90;;;;;;4992055;28;20448;-67
2022/02/08 09:39:37;;;;;;;3.50;3.20;;;5.80;99.90;;;;;;4992475;28;20411;-68
2022/02/08 09:42:05;;;;;;;11.10;4.50;;;5.90;99.90;;;;;;4992299;28;20408;-68
2022/02/08 09:44:33;;;;;;;8.63;3.60;;;5.90;99.90;;;;;;4992127;28;20400;-68
2022/02/08 09:47:01;;;;;;;3.27;2.83;;;6.00;99.90;;;;;;4991917;28;20518;-68
2022/02/08 09:49:27;;;;;;;3.97;3.50;;;6.10;99.90;;;;;;4992268;28;20398;-68
2022/02/08 09:51:54;;;;;;;10.33;4.20;;;6.10;99.90;;;;;;4992100;28;20412;-69
2022/02/08 09:54:20;;;;;;;3.30;2.67;;;6.10;99.90;;;;;;4991875;28;20400;-69
2022/02/08 09:56:46;;;;;;;3.20;2.30;;;6.20;99.90;;;;;;4992058;28;20790;-70
2022/02/08 09:59:12;;;;;;;3.77;3.10;;;6.20;99.90;;;;;;4991703;28;20470;-68
2022/02/08 10:01:38;;;;;;;4.10;2.67;;;6.30;99.90;;;;;;4991782;28;20165;-70
2022/02/08 10:04:04;;;;;;;5.37;2.40;;;6.30;99.90;;;;;;4992175;28;20174;-68
2022/02/08 10:06:31;;;;;;;3.30;3.10;;;6.30;99.90;;;;;;4991754;28;20396;-68
2022/02/08 10:08:59;;;;;;;4.70;3.10;;;6.30;99.90;;;;;;4991633;28;20412;-68
2022/02/08 10:11:31;;;;;;;2.77;2.57;;;6.30;99.90;;;;;;4992040;28;20486;-68
2022/02/08 10:14:04;;;;;;;3.50;3.20;;;6.40;99.90;;;;;;4995592;28;20419;-69
2022/02/08 10:22:06;;;;;;;5.20;2.53;;;6.50;99.90;;;;;;4995736;28;20436;-68
2022/02/08 10:24:35;;;;;;;4.70;2.13;;;6.50;99.90;;;;;;4995491;28;20452;-68
2022/02/08 10:27:06;;;;;;;5.50;2.67;;;6.50;99.90;;;;;;4995521;28;20847;-69
2022/02/08 10:29:44;;;;;;;2.63;2.43;;;6.60;99.90;;;;;;4995589;28;20392;-68
2022/02/08 10:37:36;;;;;;;4.47;3.30;;;6.60;99.90;;;;;;4995285;28;20458;-68
2022/02/08 10:37:38;;;;;;;2.57;2.00;;;6.60;99.90;;;;;;4994137;28;20388;-68
2022/02/08 10:38:07;;;;;;;1.97;1.77;;;6.60;99.90;;;;;;4994740;28;20471;-68
2022/02/08 10:40:37;;;;;;;3.23;2.50;;;6.60;99.90;;;;;;4994980;28;20408;-69
2022/02/08 10:43:04;;;;;;;4.43;2.77;;;6.70;99.90;;;;;;4995126;28;20403;-69
2022/02/08 10:45:35;;;;;;;2.10;1.97;;;6.70;99.90;;;;;;4995375;28;20418;-69
2022/02/08 10:48:11;;;;;;;8.83;2.30;;;6.70;99.90;;;;;;4994590;28;20523;-68
2022/02/08 10:50:41;;;;;;;3.60;2.43;;;6.70;99.90;;;;;;4995274;28;20430;-68
2022/02/08 10:53:08;;;;;;;3.77;2.43;;;6.80;99.90;;;;;;4994663;28;20906;-68
2022/02/08 10:55:49;;;;;;;3.73;3.40;;;6.80;99.90;;;;;;4994764;28;20756;-69
2022/02/08 10:58:31;;;;;;;6.47;3.00;;;6.80;99.90;;;;;;4995037;28;20462;-68
2022/02/08 11:03:35;;;;;;;4.67;2.90;;;6.80;99.90;;;;;;4994958;28;20925;-68
2022/02/08 11:06:18;;;;;;;4.27;3.20;;;6.80;99.90;;;;;;4994908;28;20462;-68
2022/02/08 11:08:59;;;;;;;3.80;2.57;;;6.80;99.90;;;;;;4994636;28;20451;-68
2022/02/08 11:22:55;;;;;;;4.37;3.07;;;7.00;99.90;;;;;;4994915;28;20897;-68
2022/02/08 11:25:34;;;;;;;2.20;2.00;;;7.10;99.90;;;;;;4994128;28;20404;-68
2022/02/08 11:28:24;;;;;;;4.40;2.77;;;7.10;99.90;;;;;;4994493;28;20471;-69
2022/02/08 11:39:28;;;;;;;3.00;2.70;;;7.30;99.90;;;;;;4993793;28;20452;-68
2022/02/08 11:42:52;;;;;;;3.70;3.10;;;7.30;99.90;;;;;;4994156;28;20915;-68
2022/02/08 11:50:59;;;;;;;6.60;4.03;;;7.50;99.90;;;;;;4994103;28;20404;-69
2022/02/08 11:53:35;;;;;;;4.93;4.27;;;7.40;99.90;;;;;;4993972;28;20403;-69
2022/02/08 11:59:03;;;;;;;4.80;4.40;;;7.50;99.90;;;;;;4993800;28;20942;-69
2022/02/08 12:09:55;;;;;;;6.20;4.07;;;7.60;99.90;;;;;;4993355;28;20502;-69
2022/02/08 12:29:28;;;;;;;14.90;6.90;;;7.70;99.90;;;;;;4973692;28;20427;-68
2022/02/08 12:34:38;;;;;;;8.00;4.70;;;7.80;99.90;;;;;;4977533;28;20446;-69
2022/02/08 12:48:33;;;;;;;5.13;4.37;;;7.90;99.90;;;;;;4992938;28;20388;-68
2022/02/08 12:54:11;;;;;;;6.23;3.80;;;8.10;99.90;;;;;;5010068;28;20534;-73
2022/02/08 13:02:10;;;;;;;5.20;3.83;;;8.30;99.90;;;;;;4993296;28;20404;-73
2022/02/08 13:04:49;;;;;;;5.43;3.40;;;8.40;99.90;;;;;;4991783;28;20474;-73
2022/02/08 13:17:19;;;;;;;5.27;4.20;;;8.50;99.90;;;;;;4992636;28;20447;-76
2022/02/08 13:19:23;;;;;;;4.80;4.03;;;8.50;99.90;;;;;;4990233;28;20467;-74
2022/02/08 13:32:41;;;;;;;6.30;5.43;;;8.40;99.90;;;;;;4981787;28;20424;-74
2022/02/08 14:05:49;;;;;;;5.50;4.60;;;8.40;99.90;;;;;;4996067;28;20484;-74
2022/02/08 14:08:17;;;;;;;8.10;3.93;;;8.50;99.90;;;;;;4995231;28;20256;-74
2022/02/08 14:11:04;;;;;;;5.87;4.07;;;8.60;99.90;;;;;;4995856;28;20416;-73
2022/02/08 14:13:52;;;;;;;6.03;4.23;;;8.70;99.90;;;;;;4995620;28;20416;-73
2022/02/08 14:19:16;;;;;;;6.07;4.30;;;8.70;99.90;;;;;;4995886;28;20559;-76
2022/02/08 14:30:08;;;;;;;4.80;3.90;;;8.50;99.90;;;;;;4995447;28;20492;-72
2022/02/08 14:32:45;;;;;;;3.87;3.53;;;8.60;99.90;;;;;;4995696;28;20409;-73
2022/02/08 14:35:36;;;;;;;4.40;3.90;;;8.60;99.90;;;;;;4996255;28;20415;-73
2022/02/08 15:10:40;;;;;;;10.07;5.97;;;8.80;99.90;;;;;;4985682;28;20492;-73
2022/02/08 15:13:07;;;;;;;6.80;4.90;;;8.80;99.90;;;;;;4975381;28;20412;-74
2022/02/08 15:17:58;;;;;;;7.97;4.33;;;8.90;99.90;;;;;;4975114;28;20873;-74
2022/02/08 15:20:24;;;;;;;6.40;4.53;;;8.90;99.90;;;;;;4988721;28;20174;-73
2022/02/08 15:22:50;;;;;;;8.03;6.13;;;8.90;99.90;;;;;;4995094;28;20172;-74
2022/02/08 15:25:17;;;;;;;7.10;5.27;;;8.90;99.90;;;;;;4994504;28;20468;-74
2022/02/08 15:27:45;;;;;;;5.37;4.50;;;9.00;99.90;;;;;;4994624;28;20470;-73
2022/02/08 15:30:11;;;;;;;7.20;4.60;;;9.00;99.90;;;;;;4994244;28;20417;-73
2022/02/08 15:32:38;;;;;;;5.90;4.70;;;9.00;99.90;;;;;;4994899;28;20417;-74
2022/02/08 15:35:05;;;;;;;5.40;4.90;;;9.00;99.90;;;;;;4994759;28;20595;-74
2022/02/08 15:37:31;;;;;;;11.87;5.03;;;9.10;99.90;;;;;;4994570;28;20461;-75
2022/02/08 15:39:58;;;;;;;9.30;4.87;;;9.10;99.90;;;;;;4994965;28;20401;-74
2022/02/08 15:42:31;;;;;;;5.53;3.87;;;9.10;99.90;;;;;;4994777;28;20459;-72
2022/02/08 15:45:08;;;;;;;6.47;3.83;;;9.10;99.90;;;;;;4994289;28;20404;-72
2022/02/08 15:47:33;;;;;;;5.93;3.77;;;9.10;99.90;;;;;;4994090;28;20931;-72
2022/02/08 15:50:07;;;;;;;7.30;5.20;;;9.10;99.90;;;;;;4994022;28;20414;-72
2022/02/08 15:55:18;;;;;;;7.33;4.93;;;9.10;99.90;;;;;;4994304;28;20400;-73
2022/02/08 16:06:49;;;;;;;7.07;4.33;;;9.10;99.90;;;;;;4977305;28;20269;-74
2022/02/08 16:14:39;;;;;;;7.47;5.27;;;9.00;99.90;;;;;;4994033;28;20408;-73
2022/02/08 16:17:21;;;;;;;8.27;4.60;;;8.90;99.90;;;;;;4993347;28;20443;-72
2022/02/08 16:20:05;;;;;;;7.30;5.27;;;8.90;99.90;;;;;;4993674;28;20422;-72
2022/02/08 16:22:56;;;;;;;7.70;5.00;;;8.90;99.90;;;;;;4993751;28;20427;-73
2022/02/08 16:28:03;;;;;;;7.03;4.90;;;8.90;99.90;;;;;;4995025;28;20522;-74
2022/02/08 16:33:43;;;;;;;11.87;5.37;;;8.90;99.90;;;;;;4993820;28;20407;-73
2022/02/08 16:58:09;;;;;;;11.03;5.30;;;8.80;99.90;;;;;;4993411;28;20229;-75
2022/02/08 17:00:36;;;;;;;8.53;5.63;;;8.80;99.90;;;;;;4993438;28;20483;-73
2022/02/08 17:03:06;;;;;;;6.90;5.67;;;8.80;99.90;;;;;;4993086;28;20405;-73
2022/02/08 17:05:31;;;;;;;6.20;4.40;;;8.80;99.90;;;;;;4993838;28;20500;-74
2022/02/08 17:07:57;;;;;;;7.73;4.57;;;8.80;99.90;;;;;;4993206;28;20471;-74
2022/02/08 17:10:39;;;;;;;8.67;6.33;;;8.80;99.90;;;;;;4993074;28;20172;-74
2022/02/08 17:18:34;;;;;;;5.00;4.13;;;8.70;99.90;;;;;;4992724;28;20579;-74
2022/02/08 17:48:03;;;;;;;8.73;5.23;;;8.70;99.90;;;;;;4992265;28;20796;-73
2022/02/08 17:50:29;;;;;;;9.37;5.83;;;8.70;99.90;;;;;;4992450;28;20419;-73
2022/02/08 17:52:55;;;;;;;6.33;5.07;;;8.70;99.90;;;;;;4992312;28;20691;-74
2022/02/08 17:55:21;;;;;;;7.30;4.70;;;8.70;99.90;;;;;;4992380;28;20181;-74
2022/02/08 17:57:47;;;;;;;10.33;5.30;;;8.70;99.90;;;;;;4992034;28;20961;-75
2022/02/08 18:00:14;;;;;;;6.20;4.23;;;8.70;99.90;;;;;;4992222;28;20455;-75
2022/02/08 18:02:43;;;;;;;6.50;4.73;;;8.70;99.90;;;;;;4990971;28;20164;-74
2022/02/08 18:05:09;;;;;;;8.00;3.90;;;8.70;99.90;;;;;;4992219;28;20911;-75
2022/02/08 18:07:36;;;;;;;7.70;5.10;;;8.70;99.90;;;;;;4992298;28;20438;-75
2022/02/08 18:10:02;;;;;;;8.13;4.90;;;8.70;99.90;;;;;;4992252;28;20165;-75
2022/02/08 18:12:29;;;;;;;5.30;4.73;;;8.70;99.90;;;;;;4993217;28;20400;-75
2022/02/08 18:14:58;;;;;;;5.47;3.50;;;8.70;99.90;;;;;;4993557;28;20910;-74
2022/02/08 18:17:38;;;;;;;6.00;3.87;;;8.70;99.90;;;;;;4992579;28;20426;-75
2022/02/08 18:20:14;;;;;;;6.20;4.20;;;8.70;99.90;;;;;;4993737;28;20780;-75
2022/02/08 18:54:36;;;;;;;10.80;6.10;;;8.70;99.90;;;;;;5014308;28;20910;-66
2022/02/08 18:57:32;;;;;;;6.93;5.50;;;8.70;99.90;;;;;;5014577;28;20403;-66
2022/02/08 19:07:00;;;;;;;6.97;5.80;;;8.70;99.90;;;;;;4994666;28;20451;-66
2022/02/08 19:14:28;;;;;;;10.00;5.53;;;8.70;99.90;;;;;;5014070;28;20827;-67
2022/02/08 19:16:59;;;;;;;7.67;6.33;;;8.70;99.90;;;;;;5014406;28;20843;-67
2022/02/08 19:22:09;;;;;;;8.43;5.80;;;8.70;99.90;;;;;;5013985;28;20418;-66
2022/02/08 19:24:35;;;;;;;7.53;4.97;;;8.70;99.90;;;;;;5013843;28;20924;-66
2022/02/08 19:27:02;;;;;;;8.10;5.00;;;8.70;99.90;;;;;;5013793;28;20408;-66
2022/02/08 19:29:33;;;;;;;6.27;4.63;;;8.80;99.90;;;;;;5013822;28;20480;-66
2022/02/08 19:31:59;;;;;;;8.00;5.83;;;8.80;99.90;;;;;;5013601;28;20783;-66
2022/02/08 19:34:25;;;;;;;7.43;3.67;;;8.80;99.90;;;;;;5013598;28;20412;-66
2022/02/08 19:36:53;;;;;;;9.57;5.93;;;8.70;99.90;;;;;;5013515;28;20400;-67
2022/02/08 19:39:18;;;;;;;9.93;6.90;;;8.70;99.90;;;;;;5013323;28;20203;-66
2022/02/08 19:41:44;;;;;;;6.47;4.27;;;8.70;99.90;;;;;;5013714;28;20408;-66
2022/02/08 19:44:10;;;;;;;6.40;3.37;;;8.80;99.90;;;;;;5013400;28;20260;-66
2022/02/08 19:46:37;;;;;;;8.67;6.40;;;8.70;99.90;;;;;;5013671;28;20422;-66
2022/02/08 19:49:04;;;;;;;8.90;5.67;;;8.70;99.90;;;;;;5013380;28;20678;-66
2022/02/08 19:51:29;;;;;;;9.03;4.53;;;8.70;99.90;;;;;;5013710;28;20519;-66
2022/02/08 19:53:57;;;;;;;6.77;4.47;;;8.70;99.90;;;;;;5013250;28;20527;-66
2022/02/08 19:58:53;;;;;;;11.67;5.60;;;8.70;99.90;;;;;;5013364;28;20454;-66
2022/02/08 20:01:25;;;;;;;11.50;5.90;;;8.80;99.90;;;;;;5013640;28;20156;-66
2022/02/08 20:04:00;;;;;;;11.67;5.40;;;8.80;99.90;;;;;;5013216;28;20534;-66
2022/02/08 20:06:29;;;;;;;7.83;6.03;;;8.80;99.90;;;;;;5013203;28;20409;-68
2022/02/08 20:08:55;;;;;;;5.40;4.27;;;8.80;99.90;;;;;;5012866;28;20428;-68
2022/02/08 20:11:22;;;;;;;6.60;4.90;;;8.80;99.90;;;;;;5013230;28;20407;-67
2022/02/08 20:13:52;;;;;;;10.77;6.70;;;8.80;99.90;;;;;;5013248;28;20181;-67
2022/02/08 20:16:21;;;;;;;11.60;5.03;;;8.80;99.90;;;;;;5012958;28;20405;-66
2022/02/08 20:18:50;;;;;;;6.97;3.90;;;8.70;99.90;;;;;;5012822;28;20455;-67
2022/02/08 20:21:17;;;;;;;8.80;6.23;;;8.70;99.90;;;;;;5012699;28;20408;-66
2022/02/08 20:23:42;;;;;;;12.53;6.13;;;8.70;99.90;;;;;;5013015;28;20442;-66